Time;durP1;ratioP1;P1;durP2;ratioP2;P2;SDS_P1;SDS_P2;PMS_P1;PMS_P2;Temp;Humidity;BMP_temperature;BMP_pressure;BME280_temperature;BME280_humidity;BME280_pressure;Samples;Min_cycle;Max_cycle;Signal;HPM_P1;HPM_P2
2022/02/03 00:00:38;;;;;;;18.35;5.00;;;4.30;99.90;;;;;;12549511;28;20048;-80
2022/02/03 00:06:51;;;;;;;21.98;4.90;;;4.30;99.90;;;;;;12533931;28;21105;-79
2022/02/03 00:25:41;;;;;;;26.95;6.55;;;4.30;99.90;;;;;;12544195;28;20381;-80
2022/02/03 00:32:01;;;;;;;27.27;6.47;;;4.20;99.90;;;;;;12544696;28;20123;-80
2022/02/03 00:50:48;;;;;;;30.13;9.57;;;4.10;99.90;;;;;;12549909;28;20135;-80
2022/02/03 00:56:54;;;;;;;31.52;9.98;;;4.10;99.90;;;;;;12528514;28;20113;-81
2022/02/03 01:03:16;;;;;;;32.60;10.13;;;4.10;99.90;;;;;;12531273;28;20044;-81
2022/02/03 01:09:22;;;;;;;34.22;11.38;;;4.10;99.90;;;;;;12551505;28;20132;-81
2022/02/03 01:15:43;;;;;;;38.30;11.25;;;4.10;99.90;;;;;;12547267;28;20085;-81
2022/02/03 01:47:25;;;;;;;54.75;18.02;;;4.50;99.90;;;;;;12555526;28;20565;-84
2022/02/03 01:53:22;;;;;;;45.88;16.55;;;4.60;99.90;;;;;;12548745;28;20111;-85
2022/02/03 01:59:25;;;;;;;49.22;17.42;;;4.60;99.90;;;;;;12539611;28;20143;-84
2022/02/03 02:05:52;;;;;;;51.17;17.97;;;4.70;99.90;;;;;;12531527;28;20049;-84
2022/02/03 02:12:36;;;;;;;55.00;19.70;;;4.70;99.90;;;;;;12555891;28;20131;-83
2022/02/03 02:19:10;;;;;;;60.78;20.80;;;4.70;99.90;;;;;;12548762;28;20185;-87
2022/02/03 02:44:54;;;;;;;52.38;18.77;;;4.90;99.90;;;;;;12553842;28;20056;-84
2022/02/03 02:51:09;;;;;;;53.55;19.17;;;5.00;99.90;;;;;;12564844;28;20143;-86
2022/02/03 02:57:43;;;;;;;54.65;18.33;;;5.10;99.90;;;;;;12552244;28;20076;-85
2022/02/03 03:41:20;;;;;;;60.97;19.70;;;5.70;99.90;;;;;;12567398;28;20542;-86
2022/02/03 03:47:27;;;;;;;67.15;21.77;;;5.80;99.90;;;;;;12562052;28;20053;-84
2022/02/03 03:53:46;;;;;;;93.68;23.42;;;5.90;99.90;;;;;;12560285;28;20056;-86
2022/02/03 04:00:25;;;;;;;114.35;24.73;;;5.90;99.90;;;;;;12540898;28;20064;-85
2022/02/03 04:39:25;;;;;;;104.80;26.15;;;6.20;99.90;;;;;;12560135;28;20048;-86
2022/02/03 05:25:26;;;;;;;116.47;29.38;;;6.70;99.90;;;;;;12544791;28;20053;-84
2022/02/03 05:42:04;;;;;;;117.53;29.73;;;6.80;99.90;;;;;;12545783;28;20722;-86
2022/02/03 06:04:08;;;;;;;173.35;39.08;;;6.90;99.90;;;;;;12448292;28;20433;-85
2022/02/03 06:16:40;;;;;;;176.05;40.35;;;7.00;99.90;;;;;;12454068;28;20034;-86
2022/02/03 06:28:49;;;;;;;177.23;42.13;;;7.00;99.90;;;;;;12460231;28;20050;-83
2022/02/03 06:34:51;;;;;;;162.57;42.38;;;7.00;99.90;;;;;;12471894;28;20064;-85
2022/02/03 06:40:53;;;;;;;171.98;43.40;;;7.10;99.90;;;;;;12462513;28;20140;-84
2022/02/03 06:46:59;;;;;;;164.05;42.08;;;7.10;99.90;;;;;;12497929;28;20466;-85
2022/02/03 06:53:15;;;;;;;145.48;39.80;;;7.10;99.90;;;;;;12569245;28;20040;-84
2022/02/03 06:59:23;;;;;;;166.70;41.83;;;7.20;99.90;;;;;;12573977;28;20056;-85
2022/02/03 07:05:25;;;;;;;149.88;42.47;;;7.20;99.90;;;;;;12587677;28;20090;-85
2022/02/03 07:11:27;;;;;;;141.80;40.50;;;7.30;99.90;;;;;;12534463;28;20049;-85
2022/02/03 07:17:29;;;;;;;145.23;40.53;;;7.30;99.90;;;;;;12506853;28;20135;-84
2022/02/03 07:23:32;;;;;;;164.90;45.42;;;7.30;99.90;;;;;;12519808;28;20345;-85
2022/02/03 07:29:34;;;;;;;151.48;43.75;;;7.30;99.90;;;;;;12523196;28;20041;-85
2022/02/03 07:35:36;;;;;;;144.10;43.10;;;7.30;99.90;;;;;;12520073;28;20049;-84
2022/02/03 07:41:39;;;;;;;125.32;38.67;;;7.30;99.90;;;;;;12525185;28;20095;-85
2022/02/03 07:47:49;;;;;;;124.38;39.47;;;7.30;99.90;;;;;;12510330;28;20088;-84
2022/02/03 07:53:51;;;;;;;128.35;37.75;;;7.30;99.90;;;;;;12521421;28;20402;-85
2022/02/03 07:59:55;;;;;;;113.80;34.30;;;7.30;99.90;;;;;;12523145;28;20045;-84
2022/02/03 08:06:05;;;;;;;106.13;34.77;;;7.30;99.90;;;;;;12552198;28;20052;-83
2022/02/03 08:12:11;;;;;;;95.88;32.45;;;7.30;99.90;;;;;;12549829;28;20086;-84
2022/02/03 08:18:18;;;;;;;92.60;33.85;;;7.30;99.90;;;;;;12528110;28;20052;-83
2022/02/03 08:24:33;;;;;;;75.70;29.17;;;7.20;99.90;;;;;;12530917;28;20552;-84
2022/02/03 08:30:39;;;;;;;68.25;28.55;;;7.20;99.90;;;;;;12531397;28;20748;-83
2022/02/03 08:36:41;;;;;;;76.80;30.05;;;7.20;99.90;;;;;;12530719;28;20091;-83
2022/02/03 08:42:43;;;;;;;68.90;27.15;;;7.20;99.90;;;;;;12530835;28;20053;-86
2022/02/03 08:48:45;;;;;;;72.20;30.00;;;7.20;99.90;;;;;;12551494;28;20468;-86
2022/02/03 09:58:15;;;;;;;40.97;24.58;;;6.90;99.90;;;;;;12530842;28;20148;-83
2022/02/03 10:04:34;;;;;;;;;;;6.90;99.90;;;;;;12526452;28;20474;-84
2022/02/03 10:10:36;;;;;;;33.22;20.08;;;7.00;99.90;;;;;;12522775;28;20050;-83
2022/02/03 10:16:40;;;;;;;28.63;19.13;;;7.00;99.90;;;;;;12526804;28;20060;-82
2022/02/03 10:22:48;;;;;;;28.00;18.90;;;7.00;99.90;;;;;;12538448;28;20500;-84
2022/02/03 10:28:56;;;;;;;24.70;15.93;;;7.10;99.90;;;;;;12546747;28;20335;-82
2022/02/03 10:35:15;;;;;;;22.80;14.57;;;7.10;99.90;;;;;;12525410;28;20048;-82
2022/02/03 10:41:37;;;;;;;23.23;14.85;;;7.10;99.90;;;;;;12528882;28;20132;-84
2022/02/03 11:07:24;;;;;;;23.90;15.02;;;7.00;99.90;;;;;;12537124;28;20061;-83
2022/02/03 11:13:30;;;;;;;22.25;14.20;;;7.00;99.90;;;;;;12524725;28;20144;-82
2022/02/03 11:19:34;;;;;;;23.15;14.00;;;6.90;99.90;;;;;;12537345;28;20094;-84
2022/02/03 11:45:26;;;;;;;21.27;13.75;;;7.00;99.90;;;;;;12537359;28;20136;-83
2022/02/03 12:10:59;;;;;;;17.38;12.60;;;7.20;99.90;;;;;;12567433;28;20450;-81
2022/02/03 12:17:18;;;;;;;21.38;13.55;;;7.20;99.90;;;;;;12528287;28;20606;-81
2022/02/03 12:29:51;;;;;;;17.35;13.07;;;7.10;99.90;;;;;;12546923;28;20053;-82
2022/02/03 12:42:30;;;;;;;21.98;14.75;;;6.90;99.90;;;;;;12542737;28;20065;-81
2022/02/03 12:48:35;;;;;;;22.47;15.00;;;7.00;99.90;;;;;;12528404;28;20469;-84
2022/02/03 12:54:37;;;;;;;22.42;16.77;;;6.90;99.90;;;;;;12544466;28;20589;-84
2022/02/03 13:01:07;;;;;;;24.00;17.05;;;6.80;99.90;;;;;;12543414;28;20053;-81
2022/02/03 13:07:12;;;;;;;25.48;17.08;;;6.80;99.90;;;;;;12530756;28;20079;-83
2022/02/03 13:13:28;;;;;;;23.10;16.52;;;6.80;99.90;;;;;;12528732;28;20505;-83
2022/02/03 13:19:42;;;;;;;22.73;16.98;;;6.80;99.90;;;;;;12548068;28;20065;-83
2022/02/03 13:26:01;;;;;;;26.15;19.08;;;6.80;99.90;;;;;;12525426;28;20418;-83
2022/02/03 13:32:12;;;;;;;28.45;19.77;;;6.80;99.90;;;;;;12524677;28;20064;-82
2022/02/03 13:38:27;;;;;;;27.00;18.30;;;6.80;99.90;;;;;;12512255;28;20045;-82
2022/02/03 13:44:30;;;;;;;27.90;20.05;;;6.90;99.90;;;;;;12535468;28;20127;-82
2022/02/03 13:50:33;;;;;;;27.77;19.37;;;7.00;99.90;;;;;;12529702;28;20554;-83
2022/02/03 14:22:00;;;;;;;22.83;16.25;;;7.00;99.90;;;;;;12541553;28;20069;-84
2022/02/03 14:28:03;;;;;;;20.63;15.65;;;7.00;99.90;;;;;;12529532;28;20052;-82
2022/02/03 14:34:21;;;;;;;24.95;17.33;;;7.00;99.90;;;;;;12541173;28;21289;-82
2022/02/03 14:40:35;;;;;;;23.70;17.25;;;7.00;99.90;;;;;;12526677;28;20548;-83
2022/02/03 14:46:37;;;;;;;21.70;15.60;;;7.10;99.90;;;;;;12542067;28;20076;-81
2022/02/03 14:58:56;;;;;;;20.48;13.80;;;7.10;99.90;;;;;;12555457;28;20129;-83
2022/02/03 15:05:06;;;;;;;19.00;12.52;;;7.00;99.90;;;;;;12529107;28;20107;-81
2022/02/03 15:11:12;;;;;;;16.85;10.65;;;6.90;99.90;;;;;;12535585;28;20540;-81
2022/02/03 15:17:14;;;;;;;22.48;11.13;;;6.90;99.90;;;;;;12537572;28;20048;-82
2022/02/03 15:23:24;;;;;;;20.23;12.00;;;6.80;99.90;;;;;;12528041;28;20498;-80
2022/02/03 15:29:28;;;;;;;22.10;15.68;;;6.80;99.90;;;;;;12530944;28;20091;-83
2022/02/03 15:35:47;;;;;;;28.48;16.27;;;6.80;99.90;;;;;;12532654;28;20054;-83
2022/02/03 15:41:51;;;;;;;22.15;15.60;;;6.70;99.90;;;;;;12533749;28;20080;-82
2022/02/03 15:47:58;;;;;;;23.63;17.48;;;6.60;99.90;;;;;;12544517;28;20131;-83
2022/02/03 16:19:32;;;;;;;27.30;18.45;;;6.40;99.90;;;;;;12546256;28;20071;-82
2022/02/03 16:40:48;;;;;;;25.02;19.20;;;6.30;99.90;;;;;;12551106;28;20097;-82
2022/02/03 16:51:09;;;;;;;31.73;21.05;;;6.00;99.90;;;;;;12535426;28;20037;-82
2022/02/03 16:57:17;;;;;;;32.97;20.38;;;6.10;99.90;;;;;;12517209;28;20195;-81
2022/02/03 17:03:19;;;;;;;30.13;19.98;;;6.00;99.90;;;;;;12522666;28;20143;-82
2022/02/03 17:09:21;;;;;;;32.05;20.17;;;5.90;99.90;;;;;;12541774;28;20186;-81
2022/02/03 17:15:24;;;;;;;33.90;21.05;;;5.90;99.90;;;;;;12533745;28;20044;-82
2022/02/03 17:21:28;;;;;;;28.92;19.35;;;5.90;99.90;;;;;;12525703;28;20048;-81
2022/02/03 17:27:39;;;;;;;29.08;19.38;;;5.80;99.90;;;;;;12530994;28;20059;-81
2022/02/03 18:12:01;;;;;;;30.63;18.30;;;5.80;99.90;;;;;;12545084;28;20553;-82
2022/02/03 18:31:27;;;;;;;27.90;17.83;;;5.80;99.90;;;;;;12551314;28;21951;-83
2022/02/03 18:50:36;;;;;;;28.67;18.23;;;5.70;99.90;;;;;;12555762;28;20136;-83
2022/02/03 20:12:00;;;;;;;35.35;23.80;;;5.50;99.90;;;;;;12548799;28;20076;-83
2022/02/03 20:18:04;;;;;;;35.33;23.40;;;5.60;99.90;;;;;;12552064;28;20064;-81
2022/02/03 20:24:06;;;;;;;37.83;24.43;;;5.60;99.90;;;;;;12540221;28;21133;-82
2022/02/03 20:30:10;;;;;;;42.40;26.58;;;5.60;99.90;;;;;;12547180;28;20064;-86
2022/02/03 20:36:12;;;;;;;42.15;27.27;;;5.60;99.90;;;;;;12529667;28;20044;-82
2022/02/03 20:42:16;;;;;;;44.92;26.92;;;5.60;99.90;;;;;;12530888;28;20094;-82
2022/02/03 20:48:18;;;;;;;41.78;26.67;;;5.60;99.90;;;;;;12537035;28;20113;-82
2022/02/03 20:54:20;;;;;;;40.13;26.77;;;5.60;99.90;;;;;;12535666;28;20049;-82
2022/02/03 21:06:24;;;;;;;42.50;27.92;;;5.60;99.90;;;;;;12545699;28;20049;-81
2022/02/03 21:12:27;;;;;;;43.50;28.50;;;5.60;99.90;;;;;;12530052;28;20515;-82
2022/02/03 21:18:31;;;;;;;46.58;28.17;;;5.60;99.90;;;;;;12542354;28;20769;-83
2022/02/03 21:24:33;;;;;;;47.30;28.98;;;5.60;99.90;;;;;;12574767;28;20308;-84
2022/02/03 21:30:35;;;;;;;49.38;29.50;;;5.60;99.90;;;;;;12584418;28;20051;-86
2022/02/03 21:36:39;;;;;;;48.60;30.42;;;5.60;99.90;;;;;;12551938;28;20133;-84
2022/02/03 21:42:41;;;;;;;47.17;29.38;;;5.60;99.90;;;;;;12537469;28;20163;-82
2022/02/03 21:48:48;;;;;;;44.08;28.63;;;5.60;99.90;;;;;;12545040;28;20082;-82
2022/02/03 21:54:50;;;;;;;46.90;29.23;;;5.60;99.90;;;;;;12528248;28;20087;-82
2022/02/03 22:00:57;;;;;;;49.42;30.08;;;5.60;99.90;;;;;;12546510;28;20427;-82
2022/02/03 22:07:00;;;;;;;45.30;28.33;;;5.60;99.90;;;;;;12530807;28;20045;-83
2022/02/03 22:13:02;;;;;;;51.83;31.05;;;5.60;99.90;;;;;;12531480;28;20056;-82
2022/02/03 22:19:04;;;;;;;55.78;31.50;;;5.60;99.90;;;;;;12527829;28;20182;-82
2022/02/03 22:50:39;;;;;;;58.67;33.00;;;5.50;99.90;;;;;;12544933;28;20099;-83
2022/02/03 22:56:41;;;;;;;55.08;31.98;;;5.50;99.90;;;;;;12526413;28;20049;-82
2022/02/03 23:02:43;;;;;;;57.80;32.67;;;5.50;99.90;;;;;;12529807;28;20565;-82
2022/02/03 23:15:25;;;;;;;53.67;31.80;;;5.50;99.90;;;;;;12553020;28;20052;-82
2022/02/03 23:33:19;;;;;;;50.88;30.25;;;5.60;99.90;;;;;;12546470;28;20049;-81
2022/02/03 23:39:29;;;;;;;51.90;31.48;;;5.60;99.90;;;;;;12530259;28;20076;-82
